Walhalla, North Dakota
Current Conditions -  °F | °C
As of 10:35 PM on Wednesday 26 Nov 2014 (Local Time) from K2C8 Reporting Station
Clear Clear  
Wind Chill: -25°   Ceiling: Unl
Heat Index: -13°   Visibility: 10mi
Dew Point: -18°   Wind: 5mph
Humidity: 77%   Direction: 280°W
Pressure: 30.54"   Gusts: NA
Location:  48.92°N, 97.92°W
Report Text: K2C8 270435Z AUTO 28004KT 10SM CLR M25/M28 A3054 RMK AO2
Loading
Personal Weather Stations






























Interactive Weather Map New forecast layout! Learn more

10-Day Weather Forecast

Advertisements
Track Severe Weather on mobile